createdAt,value
2022-08-17T00:00:44.030Z,60.92
2022-08-17T00:01:53.253Z,62.02
2022-08-17T00:03:06.375Z,62.96
2022-08-17T00:04:11.674Z,64.04
2022-08-17T00:05:15.708Z,63.76
2022-08-17T00:06:29.391Z,62.88
2022-08-17T00:07:31.105Z,61.71
2022-08-17T00:08:36.906Z,60.89
2022-08-17T00:09:38.659Z,60.17
2022-08-17T00:10:41.920Z,59.60
2022-08-17T00:12:35.510Z,58.89
2022-08-17T00:13:12.510Z,58.34
2022-08-17T00:14:17.745Z,58.93
2022-08-17T00:15:21.598Z,59.91
2022-08-17T00:16:55.893Z,60.91
2022-08-17T00:17:53.206Z,62.28
2022-08-17T00:19:07.527Z,63.50
2022-08-17T00:20:12.269Z,64.30
2022-08-17T00:21:17.080Z,63.79
2022-08-17T00:22:35.122Z,62.76
2022-08-17T00:23:39.369Z,61.75
2022-08-17T00:24:48.660Z,60.90
2022-08-17T00:25:50.694Z,60.23
2022-08-17T00:26:52.405Z,59.61
2022-08-17T00:27:54.133Z,58.92
2022-08-17T00:28:56.938Z,58.21
2022-08-17T00:29:58.627Z,58.42
2022-08-17T00:31:01.116Z,59.18
2022-08-17T00:33:11.959Z,60.14
2022-08-17T00:33:30.686Z,61.38
2022-08-17T00:34:32.720Z,62.37
2022-08-17T00:35:35.433Z,63.58
2022-08-17T00:36:37.797Z,64.27
2022-08-17T00:37:40.309Z,63.90
2022-08-17T00:38:42.350Z,63.03
2022-08-17T00:39:44.316Z,62.08
2022-08-17T00:40:50.028Z,61.24
2022-08-17T00:41:53.580Z,60.38
2022-08-17T00:42:55.499Z,59.75
2022-08-17T00:44:03.232Z,59.09
2022-08-17T00:45:11.164Z,58.25
2022-08-17T00:46:28.174Z,58.48
2022-08-17T00:47:30.173Z,59.44
2022-08-17T00:48:32.468Z,60.28
2022-08-17T00:49:34.214Z,61.12
2022-08-17T00:50:37.335Z,61.91
2022-08-17T00:51:54.993Z,62.70
2022-08-17T00:52:58.788Z,64.01
2022-08-17T00:54:19.066Z,63.90
2022-08-17T00:55:22.296Z,62.84
2022-08-17T00:56:31.605Z,61.85
2022-08-17T00:57:40.217Z,60.88
2022-08-17T00:58:42.109Z,60.03
2022-08-17T01:00:01.986Z,59.29
2022-08-17T01:01:08.613Z,58.11
2022-08-17T01:02:15.237Z,58.26
2022-08-17T01:03:27.657Z,59.02
2022-08-17T01:04:32.416Z,60.00
2022-08-17T01:05:38.736Z,60.84
2022-08-17T01:06:49.445Z,61.60
2022-08-17T01:07:51.738Z,62.25
2022-08-17T01:08:57.586Z,63.14
2022-08-17T01:10:06.071Z,63.91
2022-08-17T01:11:08.362Z,63.39
2022-08-17T01:12:12.144Z,62.45
2022-08-17T01:13:14.277Z,61.46
2022-08-17T01:14:16.056Z,60.58
2022-08-17T01:15:17.884Z,59.77
2022-08-17T01:16:26.725Z,58.92
2022-08-17T01:17:28.546Z,58.04
2022-08-17T01:18:32.277Z,58.22
2022-08-17T01:19:39.254Z,58.92
2022-08-17T01:20:48.970Z,59.85
2022-08-17T01:22:02.726Z,60.78
2022-08-17T01:23:04.814Z,61.72
2022-08-17T01:24:07.393Z,62.48
2022-08-17T01:25:12.698Z,63.62
2022-08-17T01:26:14.703Z,64.04
2022-08-17T01:27:18.454Z,63.36
2022-08-17T01:28:52.568Z,62.07
2022-08-17T01:29:51.119Z,60.60
2022-08-17T01:30:58.066Z,59.59
2022-08-17T01:32:06.035Z,58.37
2022-08-17T01:33:11.377Z,57.65
2022-08-17T01:34:16.554Z,57.93
2022-08-17T01:35:18.243Z,58.69
2022-08-17T01:36:20.236Z,59.61
2022-08-17T01:37:31.177Z,60.49
2022-08-17T01:38:37.208Z,61.35
2022-08-17T01:39:45.728Z,62.11
2022-08-17T01:40:57.564Z,63.05
2022-08-17T01:42:09.403Z,63.95
2022-08-17T01:43:25.034Z,63.45
2022-08-17T01:44:27.812Z,62.24
2022-08-17T01:45:33.805Z,61.20
2022-08-17T01:46:38.559Z,60.28
2022-08-17T01:47:41.749Z,59.51
2022-08-17T01:48:47.261Z,58.50
2022-08-17T01:49:49.265Z,57.91
2022-08-17T01:50:51.973Z,58.24
2022-08-17T01:51:54.742Z,58.97
2022-08-17T01:53:05.977Z,59.81
2022-08-17T01:54:12.828Z,60.78
2022-08-17T01:55:25.880Z,61.61
2022-08-17T01:56:32.575Z,62.56
2022-08-17T01:57:34.371Z,63.73
2022-08-17T01:58:37.858Z,64.02
2022-08-17T01:59:39.722Z,63.32
2022-08-17T02:00:59.465Z,62.30
2022-08-17T02:02:04.845Z,60.97
2022-08-17T02:03:08.246Z,60.13
2022-08-17T02:04:11.325Z,59.34
2022-08-17T02:05:13.187Z,58.29
2022-08-17T02:06:27.284Z,57.95
2022-08-17T02:07:29.980Z,58.56
2022-08-17T02:08:39.165Z,59.45
2022-08-17T02:09:57.362Z,60.67
2022-08-17T02:11:04.302Z,61.53
2022-08-17T02:12:38.865Z,62.44
2022-08-17T02:13:35.834Z,63.84
2022-08-17T02:14:37.550Z,63.90
2022-08-17T02:15:41.483Z,63.09
2022-08-17T02:16:43.385Z,62.01
2022-08-17T02:17:45.304Z,60.97
2022-08-17T02:18:46.997Z,60.06
2022-08-17T02:19:48.766Z,59.20
2022-08-17T02:20:50.430Z,58.07
2022-08-17T02:21:54.069Z,57.89
2022-08-17T02:22:55.842Z,58.48
2022-08-17T02:23:57.622Z,59.30
2022-08-17T02:25:02.573Z,60.15
2022-08-17T02:26:05.753Z,61.00
2022-08-17T02:27:07.611Z,61.81
2022-08-17T02:28:10.280Z,62.60
2022-08-17T02:29:12.079Z,63.68
2022-08-17T02:31:01.816Z,63.87
2022-08-17T02:31:37.918Z,62.78
2022-08-17T02:32:40.757Z,61.70
2022-08-17T02:33:43.791Z,60.75
2022-08-17T02:34:46.044Z,59.88
2022-08-17T02:35:48.082Z,58.98
2022-08-17T02:36:49.734Z,57.88
2022-08-17T02:37:55.462Z,57.82
2022-08-17T02:38:58.559Z,58.46
2022-08-17T02:40:00.502Z,59.24
2022-08-17T02:41:03.146Z,60.11
2022-08-17T02:42:05.421Z,60.91
2022-08-17T02:43:08.811Z,61.66
2022-08-17T02:44:11.351Z,62.40
2022-08-17T02:45:19.582Z,63.49
2022-08-17T02:46:21.258Z,63.98
2022-08-17T02:47:23.512Z,63.36
2022-08-17T02:48:30.824Z,62.32
2022-08-17T02:49:33.597Z,61.17
2022-08-17T02:50:35.316Z,60.24
2022-08-17T02:51:37.292Z,59.44
2022-08-17T02:52:43.666Z,58.41
2022-08-17T02:53:46.743Z,57.85
2022-08-17T02:54:48.431Z,58.25
2022-08-17T02:55:50.126Z,59.05
2022-08-17T02:56:53.479Z,59.96
2022-08-17T02:57:55.982Z,60.80
2022-08-17T02:58:58.630Z,61.55
2022-08-17T03:00:00.273Z,62.14
2022-08-17T03:01:03.261Z,63.04
2022-08-17T03:02:08.328Z,64.00
2022-08-17T03:03:11.081Z,63.70
2022-08-17T03:04:12.838Z,62.80
2022-08-17T03:05:18.252Z,61.80
2022-08-17T03:06:19.894Z,60.88
2022-08-17T03:07:21.609Z,59.84
2022-08-17T03:08:23.834Z,58.75
2022-08-17T03:09:25.570Z,57.82
2022-08-17T03:10:28.244Z,57.99
2022-08-17T03:11:29.942Z,58.71
2022-08-17T03:12:41.650Z,59.57
2022-08-17T03:13:43.281Z,60.57
2022-08-17T03:14:44.943Z,61.38
2022-08-17T03:15:47.166Z,62.20
2022-08-17T03:16:48.831Z,63.25
2022-08-17T03:17:52.063Z,64.03
2022-08-17T03:18:55.026Z,63.72
2022-08-17T03:19:56.719Z,62.77
2022-08-17T03:21:04.131Z,61.72
2022-08-17T03:22:35.405Z,60.77
2022-08-17T03:23:31.103Z,59.75
2022-08-17T03:24:32.896Z,59.07
2022-08-17T03:25:38.604Z,58.09
2022-08-17T03:26:40.382Z,58.06
2022-08-17T03:27:42.168Z,58.72
2022-08-17T03:28:49.825Z,59.70
2022-08-17T03:29:51.471Z,60.61
2022-08-17T03:30:53.352Z,61.46
2022-08-17T03:31:55.032Z,62.23
2022-08-17T03:33:00.810Z,63.34
2022-08-17T03:34:02.480Z,64.40
2022-08-17T03:35:04.438Z,64.16
2022-08-17T03:36:07.002Z,63.31
2022-08-17T03:37:09.461Z,62.33
2022-08-17T03:38:15.364Z,61.46
2022-08-17T03:39:17.897Z,60.73
2022-08-17T03:40:34.449Z,60.06
2022-08-17T03:41:42.054Z,59.30
2022-08-17T03:42:44.274Z,58.42
2022-08-17T03:43:46.044Z,58.26
2022-08-17T03:44:57.142Z,58.85
2022-08-17T03:46:28.810Z,59.90
2022-08-17T03:47:56.091Z,61.35
2022-08-17T03:49:16.684Z,62.50
2022-08-17T03:50:19.046Z,64.03
2022-08-17T03:51:42.692Z,64.26
2022-08-17T03:53:02.903Z,63.34
2022-08-17T03:54:23.656Z,62.25
2022-08-17T03:55:43.613Z,61.21
2022-08-17T03:56:55.115Z,60.43
2022-08-17T03:57:56.800Z,59.92
2022-08-17T03:58:58.493Z,59.47
2022-08-17T04:00:00.413Z,58.73
2022-08-17T04:01:02.323Z,58.36
2022-08-17T04:02:11.075Z,58.92
2022-08-17T04:03:13.847Z,59.95
2022-08-17T04:04:16.833Z,61.00
2022-08-17T04:05:18.540Z,61.98
2022-08-17T04:06:20.808Z,62.99
2022-08-17T04:07:26.108Z,64.16
2022-08-17T04:08:29.103Z,64.13
2022-08-17T04:09:31.125Z,63.37
2022-08-17T04:10:33.975Z,62.48
2022-08-17T04:11:43.274Z,61.61
2022-08-17T04:12:52.999Z,60.93
2022-08-17T04:13:56.101Z,60.29
2022-08-17T04:14:58.298Z,59.83
2022-08-17T04:16:00.026Z,59.44
2022-08-17T04:17:02.538Z,58.77
2022-08-17T04:18:04.401Z,58.54
2022-08-17T04:19:06.318Z,59.17
2022-08-17T04:20:08.573Z,60.11
2022-08-17T04:21:10.636Z,61.14
2022-08-17T04:22:12.378Z,62.09
2022-08-17T04:23:36.569Z,63.59
2022-08-17T04:24:38.311Z,64.34
2022-08-17T04:25:44.462Z,64.01
2022-08-17T04:26:53.817Z,63.15
2022-08-17T04:27:57.695Z,62.14
2022-08-17T04:28:59.893Z,61.35
2022-08-17T04:30:02.195Z,60.71
2022-08-17T04:31:04.738Z,60.20
2022-08-17T04:32:06.797Z,59.75
2022-08-17T04:33:18.345Z,59.38
2022-08-17T04:34:20.261Z,58.65
2022-08-17T04:35:25.957Z,58.69
2022-08-17T04:36:28.357Z,59.47
2022-08-17T04:37:30.220Z,60.47
2022-08-17T04:38:35.792Z,61.48
2022-08-17T04:39:37.519Z,62.54
2022-08-17T04:40:58.028Z,63.85
2022-08-17T04:42:17.030Z,64.35
2022-08-17T04:43:22.198Z,63.55
2022-08-17T04:44:30.406Z,62.73
2022-08-17T04:45:55.478Z,61.83
2022-08-17T04:46:58.518Z,61.16
2022-08-17T04:48:01.227Z,60.71
2022-08-17T04:49:06.739Z,60.37
2022-08-17T04:50:09.280Z,60.06
2022-08-17T04:51:14.947Z,59.81
2022-08-17T04:52:29.775Z,59.59
2022-08-17T04:53:44.476Z,59.27
2022-08-17T04:54:46.174Z,58.70
2022-08-17T04:55:48.451Z,58.97
2022-08-17T04:56:50.166Z,59.86
2022-08-17T04:57:51.855Z,60.86
2022-08-17T04:58:56.784Z,61.95
2022-08-17T04:59:58.480Z,63.34
2022-08-17T05:01:00.486Z,64.53
2022-08-17T05:02:02.326Z,64.59
2022-08-17T05:03:04.956Z,64.00
2022-08-17T05:04:32.121Z,63.21
2022-08-17T05:05:36.455Z,62.27
2022-08-17T05:06:38.233Z,61.65
2022-08-17T05:07:39.961Z,61.23
2022-08-17T05:08:42.122Z,60.86
2022-08-17T05:09:43.981Z,60.52
2022-08-17T05:10:46.965Z,60.23
2022-08-17T05:11:48.844Z,60.02
2022-08-17T05:13:15.804Z,59.81
2022-08-17T05:14:17.510Z,59.54
2022-08-17T05:15:19.249Z,59.34
2022-08-17T05:16:23.583Z,58.71
2022-08-17T05:17:25.295Z,58.79
2022-08-17T05:18:29.570Z,59.54
2022-08-17T05:19:31.336Z,60.60
2022-08-17T05:20:34.970Z,61.64
2022-08-17T05:21:36.688Z,62.75
2022-08-17T05:22:51.275Z,64.10
2022-08-17T05:23:56.395Z,64.34
2022-08-17T05:24:58.657Z,63.65
2022-08-17T05:26:04.398Z,62.78
2022-08-17T05:27:09.640Z,61.96
2022-08-17T05:28:19.059Z,61.26
2022-08-17T05:29:33.790Z,60.62
2022-08-17T05:30:40.421Z,60.29
2022-08-17T05:31:42.151Z,60.03
2022-08-17T05:33:00.308Z,59.64
2022-08-17T05:34:02.062Z,59.01
2022-08-17T05:35:05.359Z,58.47
2022-08-17T05:36:09.616Z,58.78
2022-08-17T05:37:31.301Z,59.89
2022-08-17T05:38:33.194Z,60.89
2022-08-17T05:39:34.898Z,61.82
2022-08-17T05:40:37.151Z,62.89
2022-08-17T05:41:39.220Z,64.06
2022-08-17T05:42:41.505Z,64.16
2022-08-17T05:43:43.351Z,63.51
2022-08-17T05:44:45.176Z,62.60
2022-08-17T05:46:13.297Z,61.75
2022-08-17T05:47:15.249Z,60.66
2022-08-17T05:48:17.041Z,60.05
2022-08-17T05:49:28.349Z,59.56
2022-08-17T05:50:45.755Z,58.82
2022-08-17T05:52:08.498Z,58.43
2022-08-17T05:53:32.789Z,59.30
2022-08-17T05:54:43.375Z,60.55
2022-08-17T05:56:29.465Z,61.44
2022-08-17T05:57:56.061Z,62.98
2022-08-17T05:59:18.649Z,64.15
2022-08-17T06:00:30.586Z,63.53
2022-08-17T06:01:48.591Z,62.43
2022-08-17T06:02:56.000Z,61.32
2022-08-17T06:04:22.573Z,60.46
2022-08-17T06:05:55.393Z,59.81
2022-08-17T06:07:21.704Z,58.99
2022-08-17T06:08:54.021Z,58.01
2022-08-17T06:10:14.707Z,58.80
2022-08-17T06:11:32.838Z,60.04
2022-08-17T06:12:56.195Z,61.03
2022-08-17T06:14:30.598Z,62.16
2022-08-17T06:15:52.618Z,63.82
2022-08-17T06:17:02.357Z,64.15
2022-08-17T06:18:08.178Z,63.31
2022-08-17T06:19:48.656Z,62.39
2022-08-17T06:20:53.484Z,61.02
2022-08-17T06:21:55.953Z,60.39
2022-08-17T06:23:08.701Z,59.52
2022-08-17T06:24:35.659Z,58.88
2022-08-17T06:25:49.680Z,58.76
2022-08-17T06:26:54.763Z,59.31
2022-08-17T06:28:08.657Z,60.05
2022-08-17T06:29:41.211Z,61.00
2022-08-17T06:31:00.743Z,62.07
2022-08-17T06:32:05.000Z,63.20
2022-08-17T06:33:17.370Z,63.80
2022-08-17T06:34:20.815Z,63.17
2022-08-17T06:35:34.143Z,62.25
2022-08-17T06:36:53.961Z,60.82
2022-08-17T06:38:37.119Z,59.74
2022-08-17T06:39:37.691Z,58.40
2022-08-17T06:41:13.762Z,57.34
2022-08-17T06:43:00.819Z,58.09
2022-08-17T06:44:43.179Z,59.34
2022-08-17T06:46:11.462Z,60.38
2022-08-17T06:47:28.162Z,61.10
2022-08-17T06:49:09.041Z,61.84
2022-08-17T06:50:35.917Z,62.32
2022-08-17T06:51:40.603Z,62.52
2022-08-17T06:52:57.670Z,63.48
2022-08-17T06:54:14.347Z,63.68
2022-08-17T06:55:26.383Z,62.21
2022-08-17T06:56:53.296Z,60.99
2022-08-17T06:58:05.330Z,59.59
2022-08-17T06:59:23.661Z,57.71
2022-08-17T07:00:37.058Z,57.05
2022-08-17T07:01:42.125Z,57.35
2022-08-17T07:02:58.794Z,58.09
2022-08-17T07:04:12.106Z,59.04
2022-08-17T07:05:18.322Z,59.82
2022-08-17T07:06:32.433Z,60.68
2022-08-17T07:08:04.861Z,61.29
2022-08-17T07:09:18.689Z,61.41
2022-08-17T07:10:23.645Z,61.67
2022-08-17T07:11:30.969Z,61.93
2022-08-17T07:12:39.405Z,62.34
2022-08-17T07:14:05.878Z,62.05
2022-08-17T07:15:25.939Z,62.35
2022-08-17T07:16:48.952Z,63.14
2022-08-17T07:17:50.883Z,64.00
2022-08-17T07:18:56.432Z,63.26
2022-08-17T07:20:08.217Z,61.76
2022-08-17T07:21:26.912Z,59.78
2022-08-17T07:23:09.049Z,58.32
2022-08-17T07:24:43.174Z,57.79
2022-08-17T07:25:44.887Z,58.22
2022-08-17T07:26:49.516Z,58.74
2022-08-17T07:27:55.882Z,59.31
2022-08-17T07:29:00.706Z,59.94
2022-08-17T07:30:10.862Z,60.45
2022-08-17T07:31:14.292Z,61.12
2022-08-17T07:32:20.730Z,61.52
2022-08-17T07:33:34.219Z,61.72
2022-08-17T07:35:08.507Z,61.53
2022-08-17T07:36:29.594Z,61.65
2022-08-17T07:37:33.325Z,62.44
2022-08-17T07:38:35.637Z,62.90
2022-08-17T07:39:37.446Z,63.11
2022-08-17T07:41:05.368Z,62.11
2022-08-17T07:42:10.464Z,60.18
2022-08-17T07:43:23.074Z,59.25
2022-08-17T07:44:25.418Z,57.66
2022-08-17T07:45:45.730Z,57.37
2022-08-17T07:47:11.690Z,57.94
2022-08-17T07:48:21.382Z,58.99
2022-08-17T07:49:22.980Z,59.88
2022-08-17T07:50:30.050Z,60.29
2022-08-17T07:51:36.478Z,60.44
2022-08-17T07:52:50.691Z,60.67
2022-08-17T07:54:14.561Z,61.29
2022-08-17T07:55:29.469Z,61.15
2022-08-17T07:56:42.266Z,61.47
2022-08-17T07:57:57.439Z,61.73
2022-08-17T07:59:12.543Z,61.80
2022-08-17T08:00:19.770Z,61.76
2022-08-17T08:01:41.788Z,62.02
2022-08-17T08:02:47.307Z,62.30
2022-08-17T08:03:52.765Z,63.13
2022-08-17T08:05:06.788Z,63.43
2022-08-17T08:06:24.351Z,61.56
2022-08-17T08:07:32.042Z,60.31
2022-08-17T08:08:51.169Z,58.13
2022-08-17T08:10:07.809Z,57.03
2022-08-17T08:11:15.411Z,57.26
2022-08-17T08:12:34.919Z,57.75
2022-08-17T08:13:43.574Z,58.30
2022-08-17T08:14:58.716Z,58.16
2022-08-17T08:16:27.578Z,58.26
2022-08-17T08:17:36.394Z,58.40
2022-08-17T08:18:54.109Z,58.26
2022-08-17T08:20:00.492Z,58.22
2022-08-17T08:21:33.640Z,58.25
2022-08-17T08:22:46.366Z,58.65
2022-08-17T08:23:57.492Z,58.69
2022-08-17T08:25:21.400Z,58.97
2022-08-17T08:26:37.578Z,59.39
2022-08-17T08:27:54.423Z,59.22
2022-08-17T08:29:11.334Z,59.49
2022-08-17T08:30:18.459Z,59.89
2022-08-17T08:31:47.670Z,60.23
2022-08-17T08:33:21.038Z,60.69
2022-08-17T08:35:02.826Z,60.58
2022-08-17T08:36:59.326Z,60.52
2022-08-17T08:38:13.534Z,60.88
2022-08-17T08:39:24.761Z,60.82
2022-08-17T08:40:45.547Z,61.18
2022-08-17T08:42:08.856Z,61.17
2022-08-17T08:43:36.263Z,61.33
2022-08-17T08:45:00.264Z,61.14
2022-08-17T08:46:29.594Z,61.38
2022-08-17T08:47:41.572Z,61.69
2022-08-17T08:49:10.232Z,61.66
2022-08-17T08:50:37.820Z,61.47
2022-08-17T08:51:57.508Z,61.79
2022-08-17T08:53:14.316Z,61.70
2022-08-17T08:54:35.151Z,61.18
2022-08-17T08:55:50.832Z,60.66
2022-08-17T08:57:33.950Z,60.35
2022-08-17T08:58:50.672Z,60.60
2022-08-17T09:00:01.420Z,60.80
2022-08-17T09:01:27.134Z,60.67
2022-08-17T09:03:17.838Z,60.73
2022-08-17T09:05:10.670Z,60.39
2022-08-17T09:06:32.292Z,60.47
2022-08-17T09:08:01.590Z,61.04
2022-08-17T09:09:29.234Z,59.97
2022-08-17T09:10:47.911Z,59.85
2022-08-17T09:12:07.970Z,60.23
2022-08-17T09:13:28.463Z,60.34
2022-08-17T09:15:09.438Z,60.46
2022-08-17T09:16:23.139Z,59.69
2022-08-17T09:17:43.624Z,59.60
2022-08-17T09:19:00.040Z,60.10
2022-08-17T09:20:27.995Z,59.33
2022-08-17T09:21:54.780Z,59.45
2022-08-17T09:23:15.358Z,59.40
2022-08-17T09:24:35.742Z,59.14
2022-08-17T09:25:54.850Z,59.33
2022-08-17T09:27:04.414Z,60.11
2022-08-17T09:28:19.301Z,60.00
2022-08-17T09:29:25.910Z,59.22
2022-08-17T09:30:43.582Z,59.21
2022-08-17T09:31:55.606Z,58.96
2022-08-17T09:33:02.278Z,59.03
2022-08-17T09:34:33.210Z,58.65
2022-08-17T09:35:48.257Z,58.30
2022-08-17T09:36:57.298Z,57.94
2022-08-17T09:38:11.244Z,57.84
2022-08-17T09:39:36.330Z,57.66
2022-08-17T09:40:47.661Z,57.67
2022-08-17T09:42:05.219Z,56.83
2022-08-17T09:43:37.637Z,56.03
2022-08-17T09:45:10.291Z,55.46
2022-08-17T09:46:20.318Z,55.82
2022-08-17T09:47:50.264Z,56.31
2022-08-17T09:49:03.588Z,56.26
2022-08-17T09:51:04.246Z,56.41
2022-08-17T09:51:57.092Z,57.22
2022-08-17T09:52:59.654Z,57.29
2022-08-17T09:54:37.124Z,56.59
2022-08-17T09:55:52.581Z,56.24
2022-08-17T09:57:31.448Z,56.32
2022-08-17T09:58:50.440Z,56.64
2022-08-17T10:00:17.265Z,56.75
2022-08-17T10:01:35.425Z,57.42
2022-08-17T10:03:09.612Z,58.11
2022-08-17T10:04:41.044Z,58.13
2022-08-17T10:05:56.875Z,57.55
2022-08-17T10:07:13.179Z,56.99
2022-08-17T10:08:46.999Z,57.31
2022-08-17T10:10:01.545Z,57.49
2022-08-17T10:11:33.406Z,57.27
2022-08-17T10:12:50.129Z,56.57
2022-08-17T10:14:36.822Z,56.34
2022-08-17T10:15:56.444Z,56.47
2022-08-17T10:17:24.127Z,56.31
2022-08-17T10:18:39.912Z,57.13
2022-08-17T10:20:03.173Z,56.92
2022-08-17T10:21:31.649Z,56.73
2022-08-17T10:23:12.262Z,57.04
2022-08-17T10:25:20.975Z,57.13
2022-08-17T10:26:24.854Z,57.20
2022-08-17T10:27:41.574Z,57.04
2022-08-17T10:29:01.615Z,57.37
2022-08-17T10:30:08.234Z,57.46
2022-08-17T10:31:45.545Z,58.03
2022-08-17T10:33:15.627Z,57.56
2022-08-17T10:34:23.275Z,58.50
2022-08-17T10:35:53.775Z,58.17
2022-08-17T10:37:25.284Z,58.57
2022-08-17T10:38:50.510Z,57.75
2022-08-17T10:39:57.402Z,56.52
2022-08-17T10:41:27.050Z,56.26
2022-08-17T10:42:44.418Z,56.25
2022-08-17T10:43:55.857Z,56.36
2022-08-17T10:45:21.660Z,55.79
2022-08-17T10:46:52.142Z,55.19
2022-08-17T10:48:06.245Z,55.96
2022-08-17T10:49:17.293Z,56.19
2022-08-17T10:50:49.737Z,56.17
2022-08-17T10:51:58.359Z,56.30
2022-08-17T10:53:00.069Z,55.80
2022-08-17T10:54:03.389Z,55.29
2022-08-17T10:55:13.926Z,55.10
2022-08-17T10:56:17.423Z,54.89
2022-08-17T10:57:34.347Z,54.65
2022-08-17T10:58:59.162Z,54.28
2022-08-17T11:00:42.425Z,54.07
2022-08-17T11:02:04.182Z,54.84
2022-08-17T11:03:21.214Z,54.23
2022-08-17T11:04:34.452Z,53.83
2022-08-17T11:05:56.200Z,53.39
2022-08-17T11:07:43.854Z,53.68
2022-08-17T11:09:09.810Z,53.02
2022-08-17T11:10:42.240Z,53.83
2022-08-17T11:12:07.431Z,52.66
2022-08-17T11:13:44.899Z,52.31
2022-08-17T11:15:26.116Z,52.51
2022-08-17T11:16:42.847Z,52.03
2022-08-17T11:18:22.739Z,52.35
2022-08-17T11:19:38.386Z,51.23
2022-08-17T11:21:13.548Z,51.30
2022-08-17T11:23:02.596Z,51.04
2022-08-17T11:24:14.965Z,51.07
2022-08-17T11:25:21.106Z,50.01
2022-08-17T11:26:27.258Z,50.16
2022-08-17T11:27:36.606Z,50.28
2022-08-17T11:28:52.582Z,49.83
2022-08-17T11:30:20.591Z,48.51
2022-08-17T11:31:40.193Z,48.04
2022-08-17T11:32:48.804Z,48.88
2022-08-17T11:34:13.279Z,49.27
2022-08-17T11:35:20.915Z,48.41
2022-08-17T11:36:33.664Z,49.01
2022-08-17T11:38:02.819Z,47.49
2022-08-17T11:39:13.289Z,46.82
2022-08-17T11:40:28.104Z,47.74
2022-08-17T11:41:41.365Z,48.26
2022-08-17T11:43:03.369Z,47.59
2022-08-17T11:44:43.237Z,47.52
2022-08-17T11:45:53.616Z,47.79
2022-08-17T11:47:38.826Z,47.64
2022-08-17T11:49:04.926Z,47.18
2022-08-17T11:50:43.066Z,47.20
2022-08-17T11:52:12.115Z,47.88
2022-08-17T11:53:37.128Z,47.57
2022-08-17T11:54:48.914Z,46.66
2022-08-17T11:55:53.080Z,47.06
2022-08-17T11:56:55.056Z,45.76
2022-08-17T11:58:01.653Z,44.45
2022-08-17T11:59:32.688Z,44.84
2022-08-17T12:00:46.525Z,44.34
2022-08-17T12:01:57.007Z,44.15
2022-08-17T12:03:22.464Z,44.73
2022-08-17T12:04:29.522Z,45.88
2022-08-17T12:05:34.098Z,46.35
2022-08-17T12:06:59.758Z,46.89
2022-08-17T12:08:19.728Z,46.39
2022-08-17T12:09:26.353Z,44.65
2022-08-17T12:10:32.788Z,45.20
2022-08-17T12:12:12.893Z,45.30
2022-08-17T12:13:19.050Z,45.31
2022-08-17T12:15:05.712Z,45.51
2022-08-17T12:15:56.092Z,45.67
2022-08-17T12:17:41.498Z,45.66
2022-08-17T12:18:58.494Z,43.44
2022-08-17T12:20:15.053Z,43.83
2022-08-17T12:21:41.037Z,43.86
2022-08-17T12:23:11.763Z,44.08
2022-08-17T12:24:23.110Z,43.98
2022-08-17T12:25:52.798Z,43.45
2022-08-17T12:27:00.393Z,44.01
2022-08-17T12:28:06.099Z,44.09
2022-08-17T12:29:18.171Z,44.44
2022-08-17T12:30:38.169Z,44.11
2022-08-17T12:31:47.190Z,43.63
2022-08-17T12:32:50.059Z,42.78
2022-08-17T12:33:52.265Z,42.60
2022-08-17T12:34:54.036Z,42.62
2022-08-17T12:36:05.916Z,42.73
2022-08-17T12:37:19.891Z,42.74
2022-08-17T12:38:32.461Z,42.81
2022-08-17T12:39:35.240Z,43.38
2022-08-17T12:40:37.903Z,43.88
2022-08-17T12:41:47.056Z,43.70
2022-08-17T12:43:19.549Z,42.87
2022-08-17T12:44:31.472Z,42.42
2022-08-17T12:45:36.406Z,42.08
2022-08-17T12:47:10.639Z,42.35
2022-08-17T12:48:21.550Z,42.97
2022-08-17T12:49:36.893Z,43.05
2022-08-17T12:50:42.428Z,42.94
2022-08-17T12:51:46.765Z,42.85
2022-08-17T12:52:48.655Z,42.96
2022-08-17T12:53:55.095Z,42.71
2022-08-17T12:55:03.023Z,42.98
2022-08-17T12:56:12.585Z,43.25
2022-08-17T12:57:32.711Z,42.29
2022-08-17T12:58:47.480Z,41.36
2022-08-17T12:59:54.976Z,40.47
2022-08-17T13:01:14.985Z,42.02
2022-08-17T13:02:30.001Z,41.79
2022-08-17T13:03:44.067Z,40.54
2022-08-17T13:04:46.221Z,40.69
2022-08-17T13:05:58.597Z,40.39
2022-08-17T13:07:00.447Z,40.55
2022-08-17T13:08:13.458Z,39.49
2022-08-17T13:09:35.561Z,39.21
2022-08-17T13:10:42.378Z,40.04
2022-08-17T13:11:58.379Z,40.60
2022-08-17T13:13:17.738Z,40.31
2022-08-17T13:14:21.977Z,39.79
2022-08-17T13:15:44.928Z,39.73
2022-08-17T13:16:51.333Z,38.59
2022-08-17T13:18:01.078Z,38.88
2022-08-17T13:19:40.371Z,39.47
2022-08-17T13:20:54.183Z,38.45
2022-08-17T13:22:01.874Z,39.32
2022-08-17T13:23:12.392Z,39.18
2022-08-17T13:24:24.121Z,38.96
2022-08-17T13:25:27.781Z,39.49
2022-08-17T13:26:42.142Z,40.05
2022-08-17T13:27:45.978Z,39.42
2022-08-17T13:28:51.678Z,39.24
2022-08-17T13:29:59.573Z,39.32
2022-08-17T13:31:37.469Z,39.20
2022-08-17T13:32:56.519Z,40.48
2022-08-17T13:34:26.880Z,40.38
2022-08-17T13:35:49.305Z,39.97
2022-08-17T13:37:28.888Z,39.50
2022-08-17T13:38:49.531Z,38.80
2022-08-17T13:39:53.162Z,38.26
2022-08-17T13:40:54.852Z,38.36
2022-08-17T13:41:56.564Z,37.93
2022-08-17T13:42:58.927Z,38.10
2022-08-17T13:44:01.241Z,38.67
2022-08-17T13:45:34.784Z,39.16
2022-08-17T13:46:31.292Z,39.75
2022-08-17T13:47:34.328Z,40.17
2022-08-17T13:48:36.559Z,40.77
2022-08-17T13:49:48.147Z,41.15
2022-08-17T13:50:56.801Z,41.26
2022-08-17T13:51:58.850Z,41.98
2022-08-17T13:53:14.914Z,42.10
2022-08-17T13:54:27.769Z,42.71
2022-08-17T13:55:32.094Z,43.07
2022-08-17T13:56:40.445Z,43.37
2022-08-17T13:57:46.813Z,43.99
2022-08-17T13:59:00.602Z,44.19
2022-08-17T14:00:18.798Z,44.04
2022-08-17T14:01:32.818Z,44.36
2022-08-17T14:02:34.566Z,44.60
2022-08-17T14:03:36.266Z,44.89
2022-08-17T14:04:42.322Z,45.02
2022-08-17T14:05:45.962Z,45.32
2022-08-17T14:07:21.528Z,45.90
2022-08-17T14:08:23.980Z,46.68
2022-08-17T14:09:36.805Z,47.02
2022-08-17T14:10:39.019Z,47.53
2022-08-17T14:11:41.992Z,47.82
2022-08-17T14:12:45.526Z,48.40
2022-08-17T14:13:47.265Z,48.80
2022-08-17T14:14:49.744Z,48.92
2022-08-17T14:15:55.201Z,49.32
2022-08-17T14:16:58.393Z,49.96
2022-08-17T14:18:00.518Z,50.64
2022-08-17T14:19:02.253Z,51.36
2022-08-17T14:20:06.482Z,51.99
2022-08-17T14:21:09.717Z,52.72
2022-08-17T14:22:19.527Z,52.91
2022-08-17T14:23:21.353Z,53.18
2022-08-17T14:24:44.695Z,53.09
2022-08-17T14:25:47.000Z,52.82
2022-08-17T14:26:52.133Z,52.31
2022-08-17T14:27:55.058Z,51.83
2022-08-17T14:28:57.224Z,50.90
2022-08-17T14:30:01.733Z,50.26
2022-08-17T14:31:03.564Z,49.88
2022-08-17T14:32:23.009Z,50.07
2022-08-17T14:33:24.821Z,49.45
2022-08-17T14:34:26.492Z,48.90
2022-08-17T14:35:29.543Z,48.27
2022-08-17T14:36:31.255Z,48.15
2022-08-17T14:37:34.416Z,48.07
2022-08-17T14:38:37.234Z,48.05
2022-08-17T14:39:39.404Z,47.52
2022-08-17T14:40:41.687Z,46.74
2022-08-17T14:41:43.806Z,46.48
2022-08-17T14:42:46.086Z,46.33
2022-08-17T14:43:47.800Z,46.02
2022-08-17T14:44:51.002Z,46.13
2022-08-17T14:45:52.731Z,46.49
2022-08-17T14:46:54.452Z,47.06
2022-08-17T14:47:56.121Z,47.25
2022-08-17T14:48:59.690Z,46.80
2022-08-17T14:50:02.657Z,46.66
2022-08-17T14:51:05.464Z,46.72
2022-08-17T14:52:07.192Z,47.15
2022-08-17T14:53:12.298Z,47.22
2022-08-17T14:54:33.013Z,47.21
2022-08-17T14:55:39.732Z,47.65
2022-08-17T14:56:41.397Z,47.78
2022-08-17T14:57:47.108Z,48.20
2022-08-17T14:58:49.130Z,48.26
2022-08-17T14:59:54.725Z,48.10
2022-08-17T15:00:57.691Z,48.23
2022-08-17T15:02:00.782Z,48.48
2022-08-17T15:03:04.096Z,48.56
2022-08-17T15:04:06.207Z,48.78
2022-08-17T15:05:08.460Z,48.88
2022-08-17T15:06:14.544Z,49.09
2022-08-17T15:07:18.597Z,49.18
2022-08-17T15:08:20.302Z,48.91
2022-08-17T15:09:22.064Z,48.92
2022-08-17T15:10:25.925Z,48.87
2022-08-17T15:11:27.742Z,49.13
2022-08-17T15:12:34.343Z,49.06
2022-08-17T15:13:37.259Z,48.98
2022-08-17T15:14:54.248Z,49.54
2022-08-17T15:15:56.943Z,50.32
2022-08-17T15:16:59.654Z,50.18
2022-08-17T15:18:02.604Z,49.90
2022-08-17T15:19:06.646Z,50.03
2022-08-17T15:20:14.565Z,49.60
2022-08-17T15:21:18.157Z,49.27
2022-08-17T15:22:27.368Z,48.82
2022-08-17T15:23:31.952Z,48.18
2022-08-17T15:24:33.728Z,48.21